createdAt,value
2018-03-18T00:01:38.713Z,24.23
2018-03-18T00:04:06.820Z,24.23
2018-03-18T00:06:34.892Z,24.40
2018-03-18T00:09:02.937Z,24.70
2018-03-18T00:11:30.989Z,20.80
2018-03-18T00:13:59.820Z,23.47
2018-03-18T00:16:27.896Z,21.47
2018-03-18T00:18:55.958Z,25.20
2018-03-18T00:21:24.764Z,24.70
2018-03-18T00:23:53.595Z,25.40
2018-03-18T00:26:21.681Z,22.63
2018-03-18T00:28:49.748Z,23.73
2018-03-18T00:31:18.568Z,22.13
2018-03-18T00:33:46.649Z,22.97
2018-03-18T00:36:14.709Z,26.07
2018-03-18T00:38:43.521Z,25.00
2018-03-18T00:41:12.348Z,23.03
2018-03-18T00:43:40.466Z,24.53
2018-03-18T00:46:08.808Z,24.00
2018-03-18T00:48:36.867Z,24.47
2018-03-18T00:51:05.704Z,21.73
2018-03-18T00:53:33.761Z,23.53
2018-03-18T00:56:02.593Z,23.17
2018-03-18T00:58:30.644Z,23.63
2018-03-18T01:00:59.473Z,22.43
2018-03-18T01:03:27.541Z,25.03
2018-03-18T01:05:56.369Z,23.30
2018-03-18T01:08:24.433Z,23.47
2018-03-18T01:10:53.265Z,21.30
2018-03-18T01:13:21.333Z,21.07
2018-03-18T01:15:49.388Z,22.73
2018-03-18T01:18:18.204Z,20.57
2018-03-18T01:20:47.041Z,22.47
2018-03-18T01:23:15.098Z,23.60
2018-03-18T01:25:43.144Z,22.50
2018-03-18T01:28:11.220Z,22.87
2018-03-18T01:30:39.268Z,24.80
2018-03-18T01:33:07.342Z,23.30
2018-03-18T01:35:35.400Z,19.87
2018-03-18T01:38:04.213Z,24.23
2018-03-18T01:40:33.050Z,24.83
2018-03-18T01:43:01.120Z,20.53
2018-03-18T01:45:29.188Z,23.10
2018-03-18T01:47:58.012Z,22.83
2018-03-18T01:50:26.132Z,19.70
2018-03-18T01:53:12.801Z,21.87
2018-03-18T01:55:40.861Z,23.43
2018-03-18T01:58:09.716Z,23.13
2018-03-18T02:00:37.781Z,19.93
2018-03-18T02:03:05.850Z,20.83
2018-03-18T02:05:34.777Z,22.67
2018-03-18T02:08:02.824Z,23.00
2018-03-18T02:10:30.869Z,24.00
2018-03-18T02:12:58.926Z,21.70
2018-03-18T02:15:27.019Z,23.37
2018-03-18T02:17:55.068Z,23.73
2018-03-18T02:20:23.880Z,22.87
2018-03-18T02:22:52.717Z,21.47
2018-03-18T02:25:20.788Z,22.03
2018-03-18T02:27:48.832Z,21.83
2018-03-18T02:30:16.892Z,23.03
2018-03-18T02:32:44.942Z,26.73
2018-03-18T02:35:13.009Z,21.07
2018-03-18T02:37:41.076Z,22.30
2018-03-18T02:40:10.049Z,19.27
2018-03-18T02:42:38.098Z,20.80
2018-03-18T02:45:06.141Z,22.80
2018-03-18T02:47:34.196Z,23.13
2018-03-18T02:50:02.240Z,20.53
2018-03-18T02:52:30.312Z,22.23
2018-03-18T02:54:59.118Z,18.40
2018-03-18T02:57:27.959Z,21.50
2018-03-18T02:59:56.008Z,19.67
2018-03-18T03:02:24.831Z,23.97
2018-03-18T03:04:52.889Z,21.87
2018-03-18T03:07:21.699Z,21.40
2018-03-18T03:09:50.528Z,20.13
2018-03-18T03:12:18.577Z,21.13
2018-03-18T03:14:47.472Z,20.13
2018-03-18T03:17:16.412Z,21.40
2018-03-18T03:19:44.480Z,20.80
2018-03-18T03:22:12.571Z,22.10
2018-03-18T03:24:40.590Z,23.33
2018-03-18T03:27:08.644Z,21.53
2018-03-18T03:29:36.704Z,20.13
2018-03-18T03:32:05.520Z,22.53
2018-03-18T03:34:33.581Z,20.20
2018-03-18T03:37:01.636Z,24.30
2018-03-18T03:39:29.704Z,18.83
2018-03-18T03:41:57.873Z,21.27
2018-03-18T03:44:25.925Z,19.93
2018-03-18T03:46:54.757Z,20.77
2018-03-18T03:49:22.812Z,21.63
2018-03-18T03:51:50.884Z,22.57
2018-03-18T03:54:19.698Z,21.57
2018-03-18T03:56:48.537Z,21.77
2018-03-18T03:59:16.616Z,25.20
2018-03-18T04:01:44.668Z,21.13
2018-03-18T04:04:13.501Z,26.00
2018-03-18T04:06:41.550Z,22.47
2018-03-18T04:09:09.644Z,21.43
2018-03-18T04:11:38.474Z,21.07
2018-03-18T04:14:06.544Z,19.07
2018-03-18T04:16:35.464Z,21.40
2018-03-18T04:19:03.524Z,22.50
2018-03-18T04:21:32.338Z,21.30
2018-03-18T04:24:00.405Z,20.83
2018-03-18T04:26:29.244Z,21.73
2018-03-18T04:28:57.318Z,22.00
2018-03-18T04:31:25.359Z,19.90
2018-03-18T04:33:54.205Z,22.10
2018-03-18T04:36:22.256Z,21.57
2018-03-18T04:38:50.328Z,30.13
2018-03-18T04:41:18.373Z,21.83
2018-03-18T04:43:46.420Z,19.53
2018-03-18T04:46:15.252Z,21.77
2018-03-18T04:48:43.303Z,22.93
2018-03-18T04:51:12.134Z,18.87
2018-03-18T04:53:40.221Z,21.57
2018-03-18T04:56:08.300Z,21.63
2018-03-18T04:58:36.345Z,18.27
2018-03-18T05:01:04.392Z,20.57
2018-03-18T05:03:32.474Z,17.90
2018-03-18T05:06:00.516Z,19.70
2018-03-18T05:08:28.584Z,21.63
2018-03-18T05:10:56.644Z,20.17
2018-03-18T05:13:24.698Z,22.53
2018-03-18T05:15:52.779Z,23.40
2018-03-18T05:18:20.816Z,22.23
2018-03-18T05:20:48.876Z,22.27
2018-03-18T05:23:16.942Z,21.50
2018-03-18T05:25:45.013Z,22.47
2018-03-18T05:28:13.061Z,20.40
2018-03-18T05:30:41.348Z,22.73
2018-03-18T05:33:10.165Z,21.23
2018-03-18T05:35:38.996Z,22.90
2018-03-18T05:38:07.064Z,28.83
2018-03-18T05:40:35.876Z,22.50
2018-03-18T05:43:03.967Z,23.23
2018-03-18T05:45:32.021Z,20.37
2018-03-18T05:48:00.877Z,21.43
2018-03-18T05:50:28.929Z,22.43
2018-03-18T05:52:56.977Z,22.27
2018-03-18T05:55:25.812Z,23.60
2018-03-18T05:57:53.857Z,25.47
2018-03-18T06:00:21.902Z,21.77
2018-03-18T06:02:49.974Z,22.87
2018-03-18T06:05:18.054Z,21.37
2018-03-18T06:07:46.850Z,21.00
2018-03-18T06:10:14.916Z,22.97
2018-03-18T06:12:43.728Z,24.07
2018-03-18T06:15:11.804Z,20.27
2018-03-18T06:17:40.624Z,21.27
2018-03-18T06:20:08.671Z,18.53
2018-03-18T06:22:36.733Z,19.07
2018-03-18T06:25:04.789Z,17.73
2018-03-18T06:27:32.836Z,21.73
2018-03-18T06:30:01.685Z,20.20
2018-03-18T06:32:29.737Z,21.40
2018-03-18T06:34:58.578Z,25.00
2018-03-18T06:37:26.651Z,18.83
2018-03-18T06:39:55.448Z,24.63
2018-03-18T06:42:23.501Z,20.60
2018-03-18T06:44:52.325Z,21.20
2018-03-18T06:47:20.377Z,19.97
2018-03-18T06:49:48.446Z,22.33
2018-03-18T06:52:16.493Z,24.60
2018-03-18T06:54:44.542Z,19.93
2018-03-18T06:57:12.604Z,18.83
2018-03-18T06:59:40.653Z,18.80
2018-03-18T07:02:08.733Z,20.57
2018-03-18T07:04:36.788Z,21.80
2018-03-18T07:07:04.856Z,19.83
2018-03-18T07:09:32.921Z,18.93
2018-03-18T07:12:00.977Z,21.33
2018-03-18T07:14:29.049Z,20.63
2018-03-18T07:16:57.096Z,16.83
2018-03-18T07:19:25.917Z,18.70
2018-03-18T07:21:54.099Z,20.30
2018-03-18T07:24:22.206Z,19.57
2018-03-18T07:26:50.510Z,19.97
2018-03-18T07:29:18.575Z,17.50
2018-03-18T07:31:46.616Z,20.13
2018-03-18T07:34:14.751Z,20.70
2018-03-18T07:36:42.806Z,21.50
2018-03-18T07:39:11.664Z,20.53
2018-03-18T07:41:39.702Z,19.57
2018-03-18T07:44:07.759Z,20.93
2018-03-18T07:46:35.837Z,18.60
2018-03-18T07:49:03.897Z,19.43
2018-03-18T07:51:31.954Z,20.13
2018-03-18T07:54:00.020Z,19.97
2018-03-18T07:56:28.834Z,21.90
2018-03-18T07:58:56.905Z,20.13
2018-03-18T08:01:25.736Z,18.63
2018-03-18T08:03:53.813Z,21.23
2018-03-18T08:06:21.872Z,19.93
2018-03-18T08:08:50.721Z,18.60
2018-03-18T08:11:18.788Z,21.10
2018-03-18T08:13:46.836Z,20.80
2018-03-18T08:16:14.898Z,21.10
2018-03-18T08:18:42.936Z,20.43
2018-03-18T08:21:11.018Z,17.70
2018-03-18T08:23:39.059Z,19.13
2018-03-18T08:26:07.200Z,21.23
2018-03-18T08:28:35.281Z,20.87
2018-03-18T08:31:03.334Z,18.97
2018-03-18T08:33:32.164Z,17.97
2018-03-18T08:36:00.218Z,16.30
2018-03-18T08:38:28.276Z,17.13
2018-03-18T08:40:56.337Z,15.67
2018-03-18T08:43:24.403Z,17.60
2018-03-18T08:45:52.493Z,15.60
2018-03-18T08:48:20.561Z,17.17
2018-03-18T08:50:49.381Z,17.73
2018-03-18T08:53:17.448Z,15.73
2018-03-18T08:55:46.269Z,16.57
2018-03-18T08:58:14.337Z,17.30
2018-03-18T09:00:42.385Z,17.33
2018-03-18T09:03:10.448Z,21.67
2018-03-18T09:05:38.505Z,18.27
2018-03-18T09:08:06.569Z,17.90
2018-03-18T09:10:35.397Z,16.53
2018-03-18T09:13:03.448Z,15.90
2018-03-18T09:15:32.305Z,16.50
2018-03-18T09:18:00.363Z,18.63
2018-03-18T09:20:28.429Z,16.33
2018-03-18T09:22:56.521Z,19.67
2018-03-18T09:25:24.633Z,16.87
2018-03-18T09:27:52.677Z,23.73
2018-03-18T09:30:21.547Z,17.07
2018-03-18T09:32:49.565Z,17.53
2018-03-18T09:35:18.388Z,17.77
2018-03-18T09:37:46.476Z,19.20
2018-03-18T09:40:14.550Z,17.80
2018-03-18T09:42:43.368Z,18.50
2018-03-18T09:45:11.425Z,17.03
2018-03-18T09:47:40.259Z,19.67
2018-03-18T09:50:08.310Z,18.07
2018-03-18T09:52:37.141Z,21.37
2018-03-18T09:55:05.192Z,17.93
2018-03-18T09:57:34.028Z,21.20
2018-03-18T10:00:02.085Z,24.30
2018-03-18T10:02:30.981Z,26.20
2018-03-18T10:04:59.219Z,18.77
2018-03-18T10:07:27.253Z,23.73
2018-03-18T10:09:56.069Z,25.43
2018-03-18T10:12:24.136Z,33.30
2018-03-18T10:14:52.200Z,18.50
2018-03-18T10:17:20.273Z,55.83
2018-03-18T10:19:48.304Z,22.03
2018-03-18T10:22:17.138Z,18.07
2018-03-18T10:24:45.258Z,18.23
2018-03-18T10:27:13.339Z,23.47
2018-03-18T10:29:41.402Z,20.23
2018-03-18T10:32:09.469Z,19.00
2018-03-18T10:34:37.522Z,18.90
2018-03-18T10:37:06.340Z,16.10
2018-03-18T10:39:34.387Z,19.37
2018-03-18T10:42:02.512Z,18.10
2018-03-18T10:44:30.486Z,21.07
2018-03-18T10:46:59.422Z,16.73
2018-03-18T10:49:27.469Z,17.07
2018-03-18T10:51:56.294Z,17.13
2018-03-18T10:54:24.341Z,16.77
2018-03-18T10:56:52.399Z,18.00
2018-03-18T10:59:20.466Z,16.40
2018-03-18T11:01:59.297Z,19.80
2018-03-18T11:04:27.362Z,17.80
2018-03-18T11:06:55.443Z,20.23
2018-03-18T11:09:24.260Z,22.80
2018-03-18T11:11:52.345Z,17.40
2018-03-18T11:14:20.404Z,18.13
2018-03-18T11:16:49.209Z,24.67
2018-03-18T11:19:18.041Z,22.07
2018-03-18T11:21:46.088Z,22.87
2018-03-18T11:24:14.929Z,23.07
2018-03-18T11:26:42.981Z,22.67
2018-03-18T11:29:11.785Z,19.33
2018-03-18T11:31:40.613Z,16.60
2018-03-18T11:34:08.663Z,17.93
2018-03-18T11:36:36.728Z,23.33
2018-03-18T11:39:04.801Z,16.57
2018-03-18T11:41:32.846Z,17.00
2018-03-18T11:44:00.907Z,19.13
2018-03-18T11:46:29.739Z,17.73
2018-03-18T11:48:58.703Z,17.87
2018-03-18T11:51:26.856Z,17.73
2018-03-18T11:53:54.910Z,18.30
2018-03-18T11:56:22.966Z,16.57
2018-03-18T11:58:51.809Z,16.50
2018-03-18T12:01:19.851Z,16.93
2018-03-18T12:03:47.894Z,16.93
2018-03-18T12:06:15.952Z,15.43
2018-03-18T12:08:59.892Z,14.33
2018-03-18T12:11:28.717Z,15.47
2018-03-18T12:13:56.776Z,16.13
2018-03-18T12:16:25.601Z,16.93
2018-03-18T12:18:53.681Z,14.33
2018-03-18T12:21:21.736Z,16.63
2018-03-18T12:23:50.541Z,20.20
2018-03-18T12:26:19.365Z,16.63
2018-03-18T12:28:47.425Z,17.30
2018-03-18T12:31:15.467Z,16.43
2018-03-18T12:33:43.526Z,15.90
2018-03-18T12:36:11.582Z,14.17
2018-03-18T12:38:39.638Z,15.50
2018-03-18T12:41:07.676Z,16.50
2018-03-18T12:43:35.724Z,17.07
2018-03-18T12:46:03.785Z,17.10
2018-03-18T12:48:31.832Z,17.87
2018-03-18T12:51:00.100Z,17.80
2018-03-18T12:53:28.169Z,14.83
2018-03-18T12:55:56.230Z,16.17
2018-03-18T12:58:24.264Z,14.83
2018-03-18T13:00:52.321Z,18.90
2018-03-18T13:03:20.376Z,19.10
2018-03-18T13:05:48.403Z,17.03
2018-03-18T13:08:17.234Z,19.63
2018-03-18T13:10:45.293Z,19.30
2018-03-18T13:13:14.092Z,13.23
2018-03-18T13:15:42.909Z,17.47
2018-03-18T13:18:10.965Z,15.43
2018-03-18T13:20:39.013Z,16.07
2018-03-18T13:23:07.064Z,17.17
2018-03-18T13:25:35.100Z,16.77
2018-03-18T13:28:04.678Z,19.03
2018-03-18T13:30:32.717Z,17.83
2018-03-18T13:33:00.904Z,16.00
2018-03-18T13:35:29.048Z,16.50
2018-03-18T13:37:57.088Z,15.97
2018-03-18T13:40:25.908Z,14.47
2018-03-18T13:42:53.982Z,14.87
2018-03-18T13:45:22.794Z,17.07
2018-03-18T13:47:51.607Z,15.80
2018-03-18T13:50:20.421Z,17.30
2018-03-18T13:52:48.457Z,14.40
2018-03-18T13:55:16.517Z,15.23
2018-03-18T13:57:44.557Z,16.63
2018-03-18T14:00:12.613Z,15.97
2018-03-18T14:02:40.655Z,21.40
2018-03-18T14:05:08.712Z,15.03
2018-03-18T14:07:36.754Z,15.10
2018-03-18T14:10:04.809Z,13.70
2018-03-18T14:12:32.848Z,17.63
2018-03-18T14:15:01.742Z,15.23
2018-03-18T14:17:29.929Z,15.37
2018-03-18T14:19:58.748Z,14.97
2018-03-18T14:22:27.566Z,13.77
2018-03-18T14:24:55.629Z,15.67
2018-03-18T14:27:24.429Z,16.77
2018-03-18T14:29:53.232Z,16.67
2018-03-18T14:32:22.100Z,14.10
2018-03-18T14:34:51.089Z,15.43
2018-03-18T14:37:19.119Z,14.37
2018-03-18T14:39:47.936Z,15.67
2018-03-18T14:42:16.739Z,15.70
2018-03-18T14:44:45.561Z,16.90
2018-03-18T14:47:13.613Z,15.87
2018-03-18T14:49:42.416Z,16.53
2018-03-18T14:52:11.242Z,15.20
2018-03-18T14:54:39.289Z,14.80
2018-03-18T14:57:07.404Z,16.27
2018-03-18T14:59:36.338Z,21.63
2018-03-18T15:02:04.388Z,17.30
2018-03-18T15:04:33.188Z,28.63
2018-03-18T15:07:02.015Z,16.43
2018-03-18T15:09:30.061Z,15.03
2018-03-18T15:11:58.869Z,15.67
2018-03-18T15:14:27.700Z,45.70
2018-03-18T15:16:55.765Z,16.73
2018-03-18T15:19:24.589Z,20.40
2018-03-18T15:21:52.629Z,15.57
2018-03-18T15:24:20.684Z,16.83
2018-03-18T15:26:48.740Z,15.77
2018-03-18T15:29:16.772Z,15.90
2018-03-18T15:31:44.835Z,14.93
2018-03-18T15:34:12.876Z,18.40
2018-03-18T15:36:40.936Z,17.37
2018-03-18T15:39:08.977Z,15.13
2018-03-18T15:41:37.033Z,15.20
2018-03-18T15:44:05.089Z,12.90
2018-03-18T15:46:33.126Z,14.00
2018-03-18T15:49:01.192Z,14.60
2018-03-18T15:51:29.239Z,16.00
2018-03-18T15:53:57.292Z,15.87
2018-03-18T15:56:25.321Z,15.03
2018-03-18T15:58:54.145Z,17.87
2018-03-18T16:01:22.190Z,17.93
2018-03-18T16:03:50.257Z,15.17
2018-03-18T16:06:18.306Z,14.87
2018-03-18T16:08:46.357Z,15.53
2018-03-18T16:11:14.412Z,19.80
2018-03-18T16:13:42.457Z,13.23
2018-03-18T16:16:10.518Z,17.43
2018-03-18T16:18:39.325Z,15.00
2018-03-18T16:21:08.152Z,12.60
2018-03-18T16:23:36.222Z,15.53
2018-03-18T16:26:04.281Z,23.00
2018-03-18T16:28:32.330Z,38.83
2018-03-18T16:31:21.844Z,14.53
2018-03-18T16:33:49.874Z,16.97
2018-03-18T16:36:17.948Z,13.90
2018-03-18T16:38:46.760Z,14.43
2018-03-18T16:41:14.846Z,14.53
2018-03-18T16:43:42.900Z,14.20
2018-03-18T16:46:10.953Z,15.33
2018-03-18T16:48:39.013Z,15.77
2018-03-18T16:51:07.162Z,14.53
2018-03-18T16:53:35.965Z,13.80
2018-03-18T16:56:04.782Z,16.70
2018-03-18T16:58:32.840Z,16.70
2018-03-18T17:01:00.891Z,27.60
2018-03-18T17:03:28.964Z,86.40
2018-03-18T17:05:57.020Z,75.70
2018-03-18T17:08:25.126Z,27.07
2018-03-18T17:10:53.189Z,14.57
2018-03-18T17:13:21.228Z,15.87
2018-03-18T17:15:49.317Z,13.33
2018-03-18T17:18:17.357Z,13.33
2018-03-18T17:20:45.412Z,15.60
2018-03-18T17:23:14.221Z,14.30
2018-03-18T17:25:43.048Z,18.10
2018-03-18T17:28:11.080Z,19.43
2018-03-18T17:30:39.133Z,11.63
2018-03-18T17:33:07.177Z,13.90
2018-03-18T17:35:36.005Z,13.17
2018-03-18T17:38:04.056Z,16.37
2018-03-18T17:40:32.887Z,13.17
2018-03-18T17:43:00.925Z,16.43
2018-03-18T17:45:47.122Z,13.83
2018-03-18T17:48:33.165Z,13.13
2018-03-18T17:51:19.726Z,13.80
2018-03-18T17:56:58.096Z,11.63
2018-03-18T17:59:26.132Z,14.90
2018-03-18T18:01:54.933Z,13.77
2018-03-18T18:04:23.759Z,12.33
2018-03-18T18:06:51.821Z,13.83
2018-03-18T18:09:20.629Z,12.67
2018-03-18T18:11:49.983Z,12.53
2018-03-18T18:14:19.650Z,18.27
2018-03-18T18:16:47.872Z,14.13
2018-03-18T18:19:15.941Z,13.97
2018-03-18T18:21:44.894Z,12.53
2018-03-18T18:24:13.319Z,12.20
2018-03-18T18:26:41.503Z,14.40
2018-03-18T18:29:09.854Z,14.10
2018-03-18T18:31:37.926Z,12.63
2018-03-18T18:34:06.818Z,15.10
2018-03-18T18:36:35.030Z,13.37
2018-03-18T18:39:04.005Z,12.70
2018-03-18T18:41:32.200Z,11.87
2018-03-18T18:44:00.477Z,13.40
2018-03-18T18:46:28.674Z,14.73
2018-03-18T18:48:56.860Z,15.90
2018-03-18T18:51:25.079Z,16.17
2018-03-18T18:53:54.355Z,17.37
2018-03-18T18:56:22.524Z,12.30
2018-03-18T18:58:50.564Z,14.13
2018-03-18T19:01:19.388Z,11.77
2018-03-18T19:03:48.205Z,12.67
2018-03-18T19:06:16.269Z,12.27
2018-03-18T19:08:45.110Z,11.80
2018-03-18T19:11:13.329Z,14.53
2018-03-18T19:13:42.185Z,12.77
2018-03-18T19:16:10.237Z,14.93
2018-03-18T19:18:38.298Z,12.20
2018-03-18T19:21:06.342Z,13.77
2018-03-18T19:23:34.406Z,14.00
2018-03-18T19:26:03.230Z,13.63
2018-03-18T19:28:31.281Z,14.47
2018-03-18T19:30:59.350Z,14.30
2018-03-18T19:33:27.397Z,13.30
2018-03-18T19:35:55.476Z,12.90
2018-03-18T19:38:23.512Z,14.67
2018-03-18T19:40:51.577Z,14.80
2018-03-18T19:43:19.674Z,13.33
2018-03-18T19:45:47.741Z,14.67
2018-03-18T19:48:15.817Z,17.53
2018-03-18T19:50:43.985Z,16.57
2018-03-18T19:53:12.032Z,16.37
2018-03-18T19:55:41.603Z,14.20
2018-03-18T19:58:09.667Z,14.93
2018-03-18T20:00:37.731Z,13.67
2018-03-18T20:03:06.540Z,15.13
2018-03-18T20:05:35.373Z,12.60
2018-03-18T20:08:03.422Z,13.50
2018-03-18T20:10:32.245Z,13.27
2018-03-18T20:13:00.289Z,12.83
2018-03-18T20:15:28.337Z,15.40
2018-03-18T20:17:56.409Z,15.80
2018-03-18T20:20:24.458Z,13.67
2018-03-18T20:22:53.264Z,15.23
2018-03-18T20:25:22.092Z,14.50
2018-03-18T20:27:50.148Z,11.90
2018-03-18T20:30:19.075Z,14.57
2018-03-18T20:32:47.113Z,20.13
2018-03-18T20:35:15.173Z,14.53
2018-03-18T20:37:43.209Z,15.83
2018-03-18T20:40:12.145Z,15.50
2018-03-18T20:42:40.184Z,13.10
2018-03-18T20:45:08.237Z,16.50
2018-03-18T20:47:36.306Z,15.37
2018-03-18T20:50:07.156Z,15.77
2018-03-18T20:52:35.220Z,15.53
2018-03-18T20:55:03.265Z,13.93
2018-03-18T20:57:31.333Z,14.53
2018-03-18T20:59:59.377Z,13.10
2018-03-18T21:02:27.441Z,14.17
2018-03-18T21:04:56.257Z,14.03
2018-03-18T21:07:25.071Z,13.37
2018-03-18T21:09:53.129Z,18.43
2018-03-18T21:12:21.941Z,15.07
2018-03-18T21:14:50.936Z,13.20
2018-03-18T21:17:19.040Z,13.53
2018-03-18T21:19:47.100Z,14.07
2018-03-18T21:22:15.144Z,11.90
2018-03-18T21:24:43.201Z,14.10
2018-03-18T21:27:11.292Z,11.90
2018-03-18T21:29:39.337Z,13.20
2018-03-18T21:32:08.174Z,16.03
2018-03-18T21:34:40.121Z,10.83
2018-03-18T21:37:08.217Z,12.03
2018-03-18T21:39:37.025Z,12.20
2018-03-18T21:42:05.085Z,19.70
2018-03-18T21:44:34.648Z,16.87
2018-03-18T21:47:02.704Z,13.47
2018-03-18T21:49:31.533Z,13.07
2018-03-18T21:51:59.578Z,11.97
2018-03-18T21:54:28.522Z,12.57
2018-03-18T21:56:56.565Z,13.43
2018-03-18T21:59:24.636Z,14.93
2018-03-18T22:01:52.684Z,15.13
2018-03-18T22:04:20.725Z,12.20
2018-03-18T22:06:49.568Z,13.97
2018-03-18T22:09:17.612Z,11.97
2018-03-18T22:11:46.548Z,12.37
2018-03-18T22:14:14.588Z,14.80
2018-03-18T22:16:42.649Z,15.80
2018-03-18T22:19:10.701Z,12.53
2018-03-18T22:21:38.788Z,17.20
2018-03-18T22:24:06.832Z,13.30
2018-03-18T22:26:34.902Z,13.67
2018-03-18T22:29:02.955Z,12.33
2018-03-18T22:31:31.131Z,13.90
2018-03-18T22:33:59.164Z,13.10
2018-03-18T22:36:27.209Z,12.73
2018-03-18T22:38:55.278Z,16.67
2018-03-18T22:41:23.327Z,15.83
2018-03-18T22:43:51.392Z,13.37
2018-03-18T22:46:19.437Z,12.67
2018-03-18T22:48:47.497Z,13.50
2018-03-18T22:51:16.309Z,13.47
2018-03-18T22:53:44.368Z,15.37
2018-03-18T22:56:12.497Z,13.87
2018-03-18T22:58:40.573Z,15.47
2018-03-18T23:01:08.757Z,12.97
2018-03-18T23:03:36.829Z,12.60
2018-03-18T23:06:05.636Z,10.27
2018-03-18T23:08:33.682Z,12.30
2018-03-18T23:11:01.747Z,15.57
2018-03-18T23:13:29.800Z,14.17
2018-03-18T23:15:57.848Z,12.07
2018-03-18T23:18:25.914Z,13.70
2018-03-18T23:20:53.955Z,15.10
2018-03-18T23:23:22.016Z,14.47
2018-03-18T23:25:50.828Z,12.47
2018-03-18T23:28:18.888Z,14.73
2018-03-18T23:30:47.005Z,13.43
2018-03-18T23:33:15.072Z,16.23
2018-03-18T23:35:43.879Z,13.33
2018-03-18T23:38:12.688Z,13.90
2018-03-18T23:40:40.753Z,14.60
2018-03-18T23:43:09.569Z,14.47
2018-03-18T23:45:38.388Z,14.97
2018-03-18T23:48:06.465Z,15.70
2018-03-18T23:50:34.523Z,16.63
2018-03-18T23:53:03.359Z,13.67
2018-03-18T23:55:31.412Z,14.37
2018-03-18T23:58:00.222Z,13.63
